Eldridge, IA (52748)

9:06 PM CST on December 10, 2016 (GMT -0600)
West Hickory Street | | Change Station
Active Advisory: Winter Weather Advisory

Elev 774 ft 41.65 °N, 90.59 °W | Updated 14 minutes ago

Overcast
Overcast
22.8 °F
Feels Like 13 °F
N
9.0
Wind Variable Wind from SSE
Gusts 16.0 mph

Today
High -- | Low -- °F
--% Chance of Precip.
Yesterday
High -- | Low -- °F
Precip. -- in
Pressure 30.25 in
Visibility 10.0 miles
Clouds Overcast 4300 ft
Windchill 13 °F
Dew Point 20 °F
Humidity 89%
Rainfall 0.00 in
Snow Depth Not available.
7:18 AM 4:31 PM
Waxing Gibbous, 88% visible
METAR KDVN 110252Z AUTO 13014KT 10SM OVC043 M05/M07 A3021 RMK AO2 SLP243 60000 T10501072 58034
Pressure 30.25 in
Visibility 10.0 miles
Clouds Overcast 4300 ft
Windchill 13 °F
Dew Point 20 °F
Humidity 89%
Rainfall 0.00 in
Snow Depth Not available.
7:18 AM 4:31 PM
Waxing Gibbous, 88% visible
METAR KDVN 110252Z AUTO 13014KT 10SM OVC043 M05/M07 A3021 RMK AO2 SLP243 60000 T10501072 58034

10-Day Weather Forecast

Almanac

Astronomy

Dec. 10, 2016 Rise Set
Actual Time
Civil Twilight
Nautical Twilight
Astronomical Twilight
Moon
Length of Visible Light
Length of Day
Tomorrow will be .
, % of the Moon is Illuminated

Today's Extremes

State Highs State Lows

Community

WunderPhotos

Upload Photos

1,956,692 photos uploaded!

WunderBlog® & News

Nearby

Air Quality

  Air Quality AQ Index Pollutant
Not available.

Snow Depth

Station Depth Elevation

Earthquake Activity

City Distance Mag. Time & Date
Minimum magnitude displayed is 2.5.

Coastal Water Temperatures

Place Temperature

Stations

Nearby Weather Stations

Station Location Temp. Windchill Dew Point Humidity Wind Precip. Elev Updated Type
                   

Watches & Warnings

Winter Weather Advisory
Issued: 7:37 PM CST Dec. 10, 2016 – National Weather Service

... Winter Weather Advisory remains in effect until 6 PM CST
Sunday...

* timing... periods of snow overnight through Sunday.

* Snow accumulations... 2 to 5 inches... isolated higher amounts.

* Wind... southeast 10 to 15 mph with gusts up to 20 mph.

* Temperatures... mid 20s overnight... warming to the low 30s during
the day Sunday.

* Impacts... light to moderate snowfall will create slippery
travel conditions over the area... and will reduce visibility
to under 1 mile at times.

Precautionary/preparedness actions...

A Winter Weather Advisory for snow means that periods of snow
will cause primarily travel difficulties. Be prepared for snow
covered roads and limited visibilities... and use caution while
driving.


Rp Kinney/cousins/haase